createdAt,value
2022-12-15T00:01:09.404Z,2
2022-12-15T00:02:15.941Z,2
2022-12-15T00:03:23.199Z,2.1
2022-12-15T00:04:30.143Z,2.1
2022-12-15T00:05:37.196Z,2.2
2022-12-15T00:06:44.359Z,2.2
2022-12-15T00:07:50.900Z,2.2
2022-12-15T00:08:57.962Z,2.2
2022-12-15T00:10:05.139Z,2.2
2022-12-15T00:11:12.210Z,2.2
2022-12-15T00:12:19.283Z,2.3
2022-12-15T00:13:26.744Z,2.2
2022-12-15T00:14:33.028Z,2.2
2022-12-15T00:15:40.285Z,2.2
2022-12-15T00:16:47.211Z,2.2
2022-12-15T00:17:54.360Z,2.2
2022-12-15T00:19:00.890Z,2.2
2022-12-15T00:20:08.002Z,2.2
2022-12-15T00:21:15.187Z,2.2
2022-12-15T00:22:22.211Z,2.2
2022-12-15T00:23:29.668Z,2.1
2022-12-15T00:24:35.957Z,2.1
2022-12-15T00:25:42.992Z,2.1
2022-12-15T00:26:50.111Z,2.1
2022-12-15T00:27:57.196Z,2
2022-12-15T00:29:04.629Z,2
2022-12-15T00:30:10.908Z,2
2022-12-15T00:31:18.184Z,2
2022-12-15T00:32:25.182Z,2
2022-12-15T00:35:49.009Z,1.8
2022-12-15T00:36:53.078Z,1.8
2022-12-15T00:38:00.111Z,1.8
2022-12-15T00:39:07.251Z,1.8
2022-12-15T00:40:14.376Z,1.9
2022-12-15T00:41:20.940Z,1.9
2022-12-15T00:42:28.038Z,2
2022-12-15T00:43:35.484Z,2
2022-12-15T00:44:42.330Z,2
2022-12-15T00:45:49.353Z,2
2022-12-15T00:46:56.124Z,2
2022-12-15T00:48:03.057Z,2
2022-12-15T00:49:10.140Z,2
2022-12-15T00:50:17.222Z,2
2022-12-15T00:51:24.447Z,2
2022-12-15T00:52:31.060Z,2
2022-12-15T00:53:38.043Z,2
2022-12-15T00:54:45.188Z,2
2022-12-15T00:55:52.242Z,2
2022-12-15T00:56:59.407Z,1.9
2022-12-15T00:59:13.060Z,1.9
2022-12-15T01:00:20.229Z,1.9
2022-12-15T01:01:27.365Z,1.9
2022-12-15T01:02:34.639Z,1.9
2022-12-15T01:03:41.236Z,1.9
2022-12-15T01:04:48.050Z,1.9
2022-12-15T01:05:55.189Z,1.9
2022-12-15T01:07:02.350Z,1.9
2022-12-15T01:08:09.356Z,1.9
2022-12-15T01:09:15.973Z,1.9
2022-12-15T01:10:23.101Z,1.9
2022-12-15T01:11:30.228Z,1.9
2022-12-15T01:12:37.290Z,1.9
2022-12-15T01:13:44.391Z,1.9
2022-12-15T01:14:51.024Z,1.9
2022-12-15T01:15:58.341Z,1.8
2022-12-15T01:17:05.259Z,1.8
2022-12-15T01:18:12.285Z,1.8
2022-12-15T01:19:19.370Z,1.8
2022-12-15T01:20:26.044Z,1.8
2022-12-15T01:21:33.169Z,1.8
2022-12-15T01:22:40.192Z,1.8
2022-12-15T01:23:47.277Z,1.8
2022-12-15T01:24:54.429Z,1.8
2022-12-15T01:26:01.015Z,1.8
2022-12-15T01:27:08.151Z,1.8
2022-12-15T01:28:15.218Z,1.9
2022-12-15T01:29:22.306Z,1.8
2022-12-15T01:30:29.383Z,1.9
2022-12-15T01:31:36.116Z,1.9
2022-12-15T01:32:45.978Z,1.9
2022-12-15T01:33:50.204Z,1.9
2022-12-15T01:34:57.824Z,1.8
2022-12-15T01:36:04.428Z,1.9
2022-12-15T01:37:11.089Z,1.8
2022-12-15T01:39:25.268Z,1.9
2022-12-15T01:40:32.305Z,1.9
2022-12-15T01:41:39.453Z,1.9
2022-12-15T01:42:46.029Z,1.9
2022-12-15T01:43:53.158Z,1.9
2022-12-15T01:45:00.250Z,1.9
2022-12-15T01:46:07.298Z,1.9
2022-12-15T01:47:14.627Z,1.9
2022-12-15T01:48:21.016Z,1.9
2022-12-15T01:49:28.150Z,2
2022-12-15T01:50:35.233Z,2
2022-12-15T01:51:42.423Z,2
2022-12-15T01:52:49.721Z,2.1
2022-12-15T01:53:56.050Z,2.2
2022-12-15T01:55:03.174Z,2.2
2022-12-15T01:56:10.250Z,2.2
2022-12-15T01:57:17.314Z,2.2
2022-12-15T01:58:23.951Z,2.2
2022-12-15T01:59:31.060Z,2.3
2022-12-15T02:00:38.181Z,2.3
2022-12-15T02:01:45.487Z,2.3
2022-12-15T02:02:52.573Z,2.2
2022-12-15T02:03:58.903Z,2.2
2022-12-15T02:05:06.060Z,2.2
2022-12-15T02:06:13.153Z,2.1
2022-12-15T02:07:20.308Z,2.1
2022-12-15T02:08:27.360Z,2
2022-12-15T02:09:33.942Z,2
2022-12-15T02:10:41.058Z,2
2022-12-15T02:11:48.143Z,2
2022-12-15T02:12:55.263Z,2
2022-12-15T02:14:02.393Z,2
2022-12-15T02:15:08.921Z,2
2022-12-15T02:16:16.128Z,2
2022-12-15T02:17:23.215Z,2
2022-12-15T02:18:30.291Z,1.9
2022-12-15T02:19:37.350Z,1.9
2022-12-15T02:20:43.979Z,1.9
2022-12-15T02:21:51.130Z,1.8
2022-12-15T02:22:58.168Z,1.8
2022-12-15T02:24:05.320Z,1.8
2022-12-15T02:25:12.410Z,1.8
2022-12-15T02:27:26.151Z,1.8
2022-12-15T02:28:33.209Z,1.7
2022-12-15T02:29:40.297Z,1.7
2022-12-15T02:30:47.378Z,1.7
2022-12-15T02:31:54.173Z,1.6
2022-12-15T02:33:01.056Z,1.6
2022-12-15T02:34:08.209Z,1.6
2022-12-15T02:35:15.301Z,1.6
2022-12-15T02:36:22.390Z,1.5
2022-12-15T02:37:29.004Z,1.4
2022-12-15T02:38:36.134Z,1.4
2022-12-15T02:39:43.277Z,1.4
2022-12-15T02:40:50.321Z,1.4
2022-12-15T02:47:32.468Z,1.2
2022-12-15T02:48:39.011Z,1.2
2022-12-15T02:54:14.011Z,1.4
2022-12-15T02:55:21.110Z,1.4
2022-12-15T02:56:28.289Z,1.4
2022-12-15T02:57:35.330Z,1.4
2022-12-15T02:58:42.442Z,1.4
2022-12-15T02:59:49.016Z,1.4
2022-12-15T03:00:56.200Z,1.4
2022-12-15T03:02:03.619Z,1.4
2022-12-15T03:03:10.993Z,1.4
2022-12-15T03:04:17.400Z,1.3
2022-12-15T03:05:24.101Z,1.3
2022-12-15T03:06:31.095Z,1.3
2022-12-15T03:07:38.194Z,1.3
2022-12-15T03:08:45.353Z,1.4
2022-12-15T03:09:52.473Z,1.4
2022-12-15T03:10:59.023Z,1.4
2022-12-15T03:12:06.190Z,1.4
2022-12-15T03:13:13.259Z,1.4
2022-12-15T03:14:20.358Z,1.4
2022-12-15T03:15:31.829Z,1.4
2022-12-15T03:16:34.172Z,1.4
2022-12-15T03:17:41.142Z,1.4
2022-12-15T03:18:48.215Z,1.4
2022-12-15T03:19:55.350Z,1.4
2022-12-15T03:21:02.461Z,1.4
2022-12-15T03:22:09.100Z,1.4
2022-12-15T03:23:16.163Z,1.4
2022-12-15T03:24:23.252Z,1.4
2022-12-15T03:25:30.393Z,1.4
2022-12-15T03:26:37.511Z,1.3
2022-12-15T03:27:44.074Z,1.3
2022-12-15T03:28:51.123Z,1.3
2022-12-15T03:29:58.233Z,1.3
2022-12-15T03:31:05.373Z,1.4
2022-12-15T03:32:12.625Z,1.3
2022-12-15T03:33:19.040Z,1.4
2022-12-15T03:34:26.209Z,1.4
2022-12-15T03:35:33.260Z,1.3
2022-12-15T03:36:40.371Z,1.3
2022-12-15T03:37:47.458Z,1.3
2022-12-15T03:38:54.075Z,1.3
2022-12-15T03:40:01.162Z,1.3
2022-12-15T03:41:08.262Z,1.3
2022-12-15T03:42:15.427Z,1.3
2022-12-15T03:43:21.983Z,1.2
2022-12-15T03:44:29.040Z,1.3
2022-12-15T03:46:43.400Z,1.2
2022-12-15T03:47:50.396Z,1.2
2022-12-15T03:48:56.941Z,1.3
2022-12-15T03:50:04.098Z,1.3
2022-12-15T03:51:11.202Z,1.3
2022-12-15T03:52:18.294Z,1.3
2022-12-15T03:53:25.465Z,1.3
2022-12-15T03:55:39.062Z,1.2
2022-12-15T03:56:46.268Z,1.2
2022-12-15T03:57:53.342Z,1.2
2022-12-15T03:59:00.402Z,1.2
2022-12-15T04:00:06.958Z,1.2
2022-12-15T04:01:14.149Z,1.2
2022-12-15T04:02:21.649Z,1.2
2022-12-15T04:03:28.818Z,1.3
2022-12-15T04:04:35.425Z,1.3
2022-12-15T04:05:42.025Z,1.3
2022-12-15T04:06:49.081Z,1.3
2022-12-15T04:07:56.174Z,1.3
2022-12-15T04:09:03.336Z,1.3
2022-12-15T04:10:10.423Z,1.3
2022-12-15T04:11:17.518Z,1.3
2022-12-15T04:12:24.168Z,1.3
2022-12-15T04:13:31.669Z,1.3
2022-12-15T04:14:38.312Z,1.2
2022-12-15T04:15:45.425Z,1.2
2022-12-15T04:16:52.166Z,1.2
2022-12-15T04:17:59.191Z,1.2
2022-12-15T04:19:06.228Z,1.2
2022-12-15T04:20:13.338Z,1.2
2022-12-15T04:21:20.461Z,1.2
2022-12-15T04:22:27.014Z,1.2
2022-12-15T04:23:34.555Z,1.2
2022-12-15T04:24:41.241Z,1.2
2022-12-15T04:25:49.234Z,1.2
2022-12-15T04:26:55.481Z,1.2
2022-12-15T04:28:02.084Z,1.2
2022-12-15T04:29:09.110Z,1.2
2022-12-15T04:30:16.253Z,1.2
2022-12-15T04:31:23.941Z,1.2
2022-12-15T04:32:30.494Z,1.2
2022-12-15T04:33:38.304Z,1.3
2022-12-15T04:34:44.144Z,1.3
2022-12-15T04:35:51.272Z,1.3
2022-12-15T04:36:58.400Z,1.3
2022-12-15T04:38:05.488Z,1.3
2022-12-15T04:39:12.061Z,1.3
2022-12-15T04:40:19.143Z,1.3
2022-12-15T04:41:26.271Z,1.3
2022-12-15T04:42:33.434Z,1.3
2022-12-15T04:43:40.471Z,1.3
2022-12-15T04:44:50.130Z,1.3
2022-12-15T04:45:54.215Z,1.3
2022-12-15T04:47:01.330Z,1.3
2022-12-15T04:48:08.370Z,1.4
2022-12-15T04:50:22.070Z,1.4
2022-12-15T04:51:29.163Z,1.4
2022-12-15T04:52:36.266Z,1.4
2022-12-15T04:53:43.380Z,1.4
2022-12-15T04:54:50.500Z,1.4
2022-12-15T04:55:57.558Z,1.4
2022-12-15T04:57:04.211Z,1.4
2022-12-15T04:58:11.300Z,1.4
2022-12-15T04:59:18.359Z,1.4
2022-12-15T05:00:25.521Z,1.4
2022-12-15T05:01:32.229Z,1.4
2022-12-15T05:02:39.330Z,1.4
2022-12-15T05:03:46.311Z,1.5
2022-12-15T05:04:53.417Z,1.5
2022-12-15T05:06:00.498Z,1.5
2022-12-15T05:07:07.098Z,1.5
2022-12-15T05:08:14.172Z,1.5
2022-12-15T05:09:21.396Z,1.5
2022-12-15T05:10:28.367Z,1.5
2022-12-15T05:11:35.543Z,1.5
2022-12-15T05:12:42.081Z,1.5
2022-12-15T05:13:49.166Z,1.6
2022-12-15T05:14:56.297Z,1.6
2022-12-15T05:16:03.462Z,1.6
2022-12-15T05:17:10.146Z,1.6
2022-12-15T05:18:17.088Z,1.6
2022-12-15T05:19:24.212Z,1.6
2022-12-15T05:20:31.301Z,1.6
2022-12-15T05:21:38.472Z,1.6
2022-12-15T05:23:52.098Z,1.6
2022-12-15T05:24:59.196Z,1.6
2022-12-15T05:26:06.336Z,1.6
2022-12-15T05:27:13.505Z,1.6
2022-12-15T05:28:19.970Z,1.6
2022-12-15T05:29:27.083Z,1.6
2022-12-15T05:30:34.262Z,1.6
2022-12-15T05:31:41.431Z,1.5
2022-12-15T05:32:49.925Z,1.5
2022-12-15T05:33:59.652Z,1.5
2022-12-15T05:35:02.143Z,1.4
2022-12-15T05:36:09.227Z,1.4
2022-12-15T05:37:16.410Z,1.4
2022-12-15T05:38:23.438Z,1.4
2022-12-15T05:39:30.577Z,1.4
2022-12-15T05:40:37.126Z,1.4
2022-12-15T05:41:44.303Z,1.4
2022-12-15T05:42:51.332Z,1.4
2022-12-15T05:43:58.426Z,1.4
2022-12-15T05:45:05.608Z,1.4
2022-12-15T05:46:12.204Z,1.4
2022-12-15T05:47:19.372Z,1.4
2022-12-15T05:48:26.360Z,1.4
2022-12-15T05:49:33.485Z,1.4
2022-12-15T05:50:40.553Z,1.4
2022-12-15T05:51:47.108Z,1.4
2022-12-15T05:54:01.488Z,1.3
2022-12-15T05:55:08.439Z,1.4
2022-12-15T05:56:15.063Z,1.4
2022-12-15T05:57:22.229Z,1.3
2022-12-15T05:58:29.250Z,1.3
2022-12-15T05:59:36.866Z,1.3
2022-12-15T06:00:43.465Z,1.3
2022-12-15T06:01:50.144Z,1.3
2022-12-15T06:02:57.282Z,1.3
2022-12-15T06:04:04.307Z,1.2
2022-12-15T06:05:11.397Z,1.2
2022-12-15T06:06:18.443Z,1.2
2022-12-15T06:07:25.565Z,1.2
2022-12-15T06:08:32.154Z,1.2
2022-12-15T06:09:39.238Z,1.2
2022-12-15T06:10:46.417Z,1.2
2022-12-15T06:11:54.117Z,1.2
2022-12-15T06:13:00.076Z,1.2
2022-12-15T06:14:07.166Z,1.2
2022-12-15T06:15:14.246Z,1.2
2022-12-15T06:16:21.524Z,1.2
2022-12-15T06:17:28.531Z,1.2
2022-12-15T06:18:35.160Z,1.2
2022-12-15T06:19:42.347Z,1.2
2022-12-15T06:20:49.647Z,1.2
2022-12-15T06:21:56.493Z,1.2
2022-12-15T06:23:03.515Z,1.2
2022-12-15T06:24:10.052Z,1.2
2022-12-15T06:25:17.178Z,1.2
2022-12-15T06:26:24.286Z,1.2
2022-12-15T06:27:31.450Z,1.2
2022-12-15T06:28:38.483Z,1.2
2022-12-15T06:29:45.625Z,1.1
2022-12-15T06:30:52.247Z,1.1
2022-12-15T06:31:59.351Z,1.1
2022-12-15T06:33:06.426Z,1.2
2022-12-15T06:34:13.567Z,1.2
2022-12-15T06:35:20.098Z,1.2
2022-12-15T06:36:27.180Z,1.2
2022-12-15T06:37:34.337Z,1.2
2022-12-15T06:38:41.428Z,1.2
2022-12-15T06:39:48.535Z,1.2
2022-12-15T06:40:55.140Z,1.2
2022-12-15T06:42:02.287Z,1.2
2022-12-15T06:43:09.300Z,1.2
2022-12-15T06:44:16.460Z,1.2
2022-12-15T06:45:23.508Z,1.2
2022-12-15T06:46:30.273Z,1.2
2022-12-15T06:47:37.262Z,1.2
2022-12-15T06:48:44.323Z,1.2
2022-12-15T06:49:51.489Z,1.2
2022-12-15T06:52:05.208Z,1.2
2022-12-15T06:53:12.233Z,1.2
2022-12-15T06:54:19.301Z,1.2
2022-12-15T06:55:26.458Z,1.2
2022-12-15T06:57:40.100Z,1.2
2022-12-15T06:58:47.231Z,1.2
2022-12-15T06:59:54.371Z,1.3
2022-12-15T07:01:01.507Z,1.3
2022-12-15T07:02:08.736Z,1.3
2022-12-15T07:03:15.358Z,1.3
2022-12-15T07:04:22.332Z,1.3
2022-12-15T07:05:29.392Z,1.3
2022-12-15T07:06:36.948Z,1.3
2022-12-15T07:07:43.751Z,1.2
2022-12-15T07:08:50.139Z,1.2
2022-12-15T07:09:57.239Z,1.3
2022-12-15T07:11:04.320Z,1.3
2022-12-15T07:12:11.466Z,1.3
2022-12-15T07:13:18.564Z,1.3
2022-12-15T07:14:25.179Z,1.3
2022-12-15T07:15:32.834Z,1.3
2022-12-15T07:16:39.463Z,1.3
2022-12-15T07:17:46.521Z,1.3
2022-12-15T07:18:53.582Z,1.2
2022-12-15T07:20:00.167Z,1.2
2022-12-15T07:21:07.294Z,1.3
2022-12-15T07:22:14.391Z,1.2
2022-12-15T07:23:39.722Z,1.2
2022-12-15T07:24:28.569Z,1.2
2022-12-15T07:25:35.192Z,1.2
2022-12-15T07:26:42.340Z,1.2
2022-12-15T07:27:49.902Z,1.2
2022-12-15T07:28:56.800Z,1.2
2022-12-15T07:30:03.615Z,1.2
2022-12-15T07:31:10.223Z,1.2
2022-12-15T07:32:17.314Z,1.2
2022-12-15T07:33:24.470Z,1.2
2022-12-15T07:34:31.514Z,1.2
2022-12-15T07:35:38.567Z,1.2
2022-12-15T07:36:51.552Z,1.2
2022-12-15T07:37:52.296Z,1.2
2022-12-15T07:38:59.388Z,1.2
2022-12-15T07:40:06.550Z,1.2
2022-12-15T07:41:13.599Z,1.2
2022-12-15T07:42:20.278Z,1.2
2022-12-15T07:43:27.277Z,1.2
2022-12-15T07:44:34.394Z,1.2
2022-12-15T07:45:44.482Z,1.2
2022-12-15T07:46:48.143Z,1.2
2022-12-15T07:47:55.199Z,1.2
2022-12-15T07:49:02.321Z,1.1
2022-12-15T07:50:09.400Z,1.1
2022-12-15T07:51:19.638Z,1.1
2022-12-15T07:52:23.167Z,1.1
2022-12-15T07:53:30.769Z,1.1
2022-12-15T07:54:37.260Z,1.1
2022-12-15T07:56:06.420Z,1.1
2022-12-15T07:56:51.553Z,1.1
2022-12-15T07:57:58.201Z,1.1
2022-12-15T07:59:05.187Z,1.1
2022-12-15T08:01:19.509Z,1.1
2022-12-15T08:02:26.702Z,1.1
2022-12-15T08:03:34.461Z,1.1
2022-12-15T08:04:40.176Z,1
2022-12-15T08:05:49.471Z,1.1
2022-12-15T08:06:54.461Z,1.1
2022-12-15T08:08:01.541Z,1.1
2022-12-15T08:09:08.152Z,1.1
2022-12-15T08:10:15.294Z,1
2022-12-15T08:11:22.367Z,1
2022-12-15T08:12:29.396Z,1.1
2022-12-15T08:14:43.142Z,1.1
2022-12-15T08:15:50.287Z,1.1
2022-12-15T08:16:57.449Z,1.1
2022-12-15T08:18:04.494Z,1.1
2022-12-15T08:20:18.402Z,1.2
2022-12-15T08:21:25.698Z,1.2
2022-12-15T08:22:32.889Z,1.2
2022-12-15T08:23:39.405Z,1.2
2022-12-15T08:24:46.608Z,1.2
2022-12-15T08:25:53.658Z,1.2
2022-12-15T08:27:00.272Z,1.2
2022-12-15T08:28:07.333Z,1.1
2022-12-15T08:29:50.282Z,1.1
2022-12-15T08:30:21.551Z,1.1
2022-12-15T08:31:28.181Z,1.1
2022-12-15T08:32:35.255Z,1.1
2022-12-15T08:33:42.345Z,1.1
2022-12-15T08:34:49.419Z,1.1
2022-12-15T08:35:57.246Z,1.1
2022-12-15T08:37:03.222Z,1.1
2022-12-15T08:38:10.208Z,1.1
2022-12-15T08:39:17.793Z,1.1
2022-12-15T08:40:24.570Z,1.1
2022-12-15T08:41:31.561Z,1.1
2022-12-15T08:42:38.220Z,1.2
2022-12-15T08:43:48.671Z,1.2
2022-12-15T08:44:52.402Z,1.2
2022-12-15T08:45:59.650Z,1.2
2022-12-15T08:47:06.720Z,1.2
2022-12-15T08:48:13.904Z,1.2
2022-12-15T08:49:22.262Z,1.2
2022-12-15T08:50:27.351Z,1.2
2022-12-15T08:51:34.508Z,1.1
2022-12-15T08:52:55.378Z,1.1
2022-12-15T08:53:48.714Z,1.1
2022-12-15T08:54:55.319Z,1.1
2022-12-15T08:56:04.287Z,1.1
2022-12-15T08:57:09.613Z,1.1
2022-12-15T08:58:17.139Z,1.2
2022-12-15T08:59:23.718Z,1.2
2022-12-15T09:00:30.243Z,1.2
2022-12-15T09:01:38.207Z,1.2
2022-12-15T09:02:44.548Z,1.2
2022-12-15T09:04:58.509Z,1.2
2022-12-15T09:06:05.763Z,1.2
2022-12-15T09:07:12.678Z,1.2
2022-12-15T09:08:21.155Z,1.2
2022-12-15T09:09:26.574Z,1.2
2022-12-15T09:10:33.516Z,1.2
2022-12-15T09:11:40.288Z,1.2
2022-12-15T09:12:47.358Z,1.2
2022-12-15T09:13:55.151Z,1.2
2022-12-15T09:15:02.175Z,1.2
2022-12-15T09:16:11.200Z,1.2
2022-12-15T09:17:16.973Z,1.2
2022-12-15T09:18:22.366Z,1.2
2022-12-15T09:19:29.480Z,1.2
2022-12-15T09:20:37.009Z,1.2
2022-12-15T09:21:43.511Z,1.2
2022-12-15T09:22:50.812Z,1.2
2022-12-15T09:23:58.107Z,1.2
2022-12-15T09:25:05.030Z,1.1
2022-12-15T09:26:12.192Z,1.1
2022-12-15T09:27:18.179Z,1
2022-12-15T09:28:25.804Z,1
2022-12-15T09:29:32.424Z,1
2022-12-15T09:30:39.013Z,1
2022-12-15T09:31:46.594Z,1
2022-12-15T09:32:55.081Z,1
2022-12-15T09:34:00.356Z,1
2022-12-15T09:35:07.990Z,1
2022-12-15T09:36:15.174Z,1
2022-12-15T09:37:25.920Z,1
2022-12-15T09:38:28.200Z,1
2022-12-15T09:39:37.950Z,1
2022-12-15T09:40:43.092Z,1
2022-12-15T09:41:50.206Z,1
2022-12-15T09:43:25.652Z,1
2022-12-15T09:44:03.254Z,1
2022-12-15T09:45:10.849Z,1
2022-12-15T09:46:17.542Z,1
2022-12-15T09:48:32.379Z,1
2022-12-15T09:49:38.531Z,1
2022-12-15T09:50:45.323Z,1
2022-12-15T09:51:52.706Z,1
2022-12-15T09:52:59.536Z,1
2022-12-15T09:54:06.597Z,1
2022-12-15T09:55:14.808Z,1
2022-12-15T09:56:20.487Z,1
2022-12-15T09:57:27.652Z,1
2022-12-15T09:58:34.711Z,1
2022-12-15T09:59:42.124Z,1
2022-12-15T10:00:52.514Z,1
2022-12-15T10:01:55.759Z,1
2022-12-15T10:03:02.684Z,1
2022-12-15T10:04:09.660Z,1
2022-12-15T10:05:16.233Z,1
2022-12-15T10:06:29.641Z,1
2022-12-15T10:08:38.951Z,1.1
2022-12-15T10:09:44.929Z,1.1
2022-12-15T10:10:51.783Z,1.2
2022-12-15T10:11:58.732Z,1.2
2022-12-15T10:13:06.862Z,1.2
2022-12-15T10:14:13.640Z,1.2
2022-12-15T10:15:19.754Z,1.2
2022-12-15T10:16:26.277Z,1.3
2022-12-15T10:17:33.828Z,1.2
2022-12-15T10:18:40.380Z,1.2
2022-12-15T10:19:50.193Z,1.2
2022-12-15T10:20:54.724Z,1.2
2022-12-15T10:22:03.477Z,1.2
2022-12-15T10:23:09.998Z,1.2
2022-12-15T10:24:37.268Z,1.2
2022-12-15T10:25:29.669Z,1.2
2022-12-15T10:26:30.733Z,1.2
2022-12-15T10:27:36.494Z,1.2
2022-12-15T10:28:43.329Z,1.2
2022-12-15T10:29:51.033Z,1.3
2022-12-15T10:30:57.919Z,1.3
2022-12-15T10:32:04.660Z,1.4
2022-12-15T10:33:11.682Z,1.4
2022-12-15T10:34:19.020Z,1.4
2022-12-15T10:35:25.954Z,1.4
2022-12-15T10:36:32.954Z,1.5
2022-12-15T10:37:40.702Z,1.5
2022-12-15T10:38:46.889Z,1.4
2022-12-15T10:39:54.073Z,1.4
2022-12-15T10:41:01.074Z,1.4
2022-12-15T10:42:07.482Z,1.4
2022-12-15T10:43:15.125Z,1.4
2022-12-15T10:44:25.867Z,1.4
2022-12-15T10:45:28.291Z,1.3
2022-12-15T10:46:36.007Z,1.3
2022-12-15T10:47:44.111Z,1.3
2022-12-15T10:48:49.600Z,1.2
2022-12-15T10:49:56.740Z,1.2
2022-12-15T10:51:03.326Z,1.2
2022-12-15T10:52:10.668Z,1.2
2022-12-15T10:53:17.997Z,1.2
2022-12-15T10:54:26.269Z,1.2
2022-12-15T10:55:31.834Z,1.2
2022-12-15T10:56:38.461Z,1.2
2022-12-15T10:57:46.257Z,1.2
2022-12-15T10:58:53.061Z,1.2
2022-12-15T10:59:59.692Z,1.2
2022-12-15T11:01:07.266Z,1.2
2022-12-15T11:02:18.049Z,1.1
2022-12-15T11:03:20.642Z,1.1
2022-12-15T11:04:28.246Z,1.1
2022-12-15T11:05:35.024Z,1.1
2022-12-15T11:06:41.681Z,1.1
2022-12-15T11:07:49.156Z,1.2
2022-12-15T11:08:56.870Z,1.2
2022-12-15T11:10:02.771Z,1.2
2022-12-15T11:12:16.602Z,1.2
2022-12-15T11:13:25.522Z,1.2
2022-12-15T11:14:31.186Z,1.2
2022-12-15T11:16:44.683Z,1.2
2022-12-15T11:17:51.391Z,1.2
2022-12-15T11:18:58.360Z,1.2
2022-12-15T11:20:05.496Z,1.2
2022-12-15T11:21:15.015Z,1.2
2022-12-15T11:22:21.700Z,1.2
2022-12-15T11:23:26.675Z,1.2
2022-12-15T11:24:33.956Z,1.2
2022-12-15T11:25:40.528Z,1.3
2022-12-15T11:26:49.033Z,1.3
2022-12-15T11:27:56.394Z,1.3
2022-12-15T11:29:01.270Z,1.4
2022-12-15T11:30:09.475Z,1.4
2022-12-15T11:31:17.325Z,1.3
2022-12-15T11:32:25.209Z,1.4
2022-12-15T11:33:30.227Z,1.4
2022-12-15T11:34:36.364Z,1.4
2022-12-15T11:35:43.389Z,1.4
2022-12-15T11:36:52.153Z,1.4
2022-12-15T11:37:58.694Z,1.4
2022-12-15T11:39:06.459Z,1.4
2022-12-15T11:40:11.296Z,1.4
2022-12-15T11:41:22.703Z,1.3
2022-12-15T11:42:26.442Z,1.3
2022-12-15T11:43:33.061Z,1.3
2022-12-15T11:44:40.287Z,1.3
2022-12-15T11:45:49.473Z,1.3
2022-12-15T11:46:55.824Z,1.3
2022-12-15T11:48:02.208Z,1.3
2022-12-15T11:49:07.580Z,1.3
2022-12-15T11:50:15.018Z,1.3
2022-12-15T11:51:21.297Z,1.2
2022-12-15T11:52:29.444Z,1.3
2022-12-15T11:53:36.089Z,1.3
2022-12-15T11:54:42.741Z,1.3
2022-12-15T11:55:49.686Z,1.3
2022-12-15T11:56:56.890Z,1.3
2022-12-15T11:58:04.196Z,1.3
2022-12-15T11:59:10.505Z,1.3
2022-12-15T12:00:17.595Z,1.4
2022-12-15T12:01:25.356Z,1.4
2022-12-15T12:02:31.649Z,1.4
2022-12-15T12:03:38.747Z,1.4
2022-12-15T12:04:46.388Z,1.4
2022-12-15T12:05:52.601Z,1.4
2022-12-15T12:06:59.666Z,1.4
2022-12-15T12:08:07.502Z,1.5
2022-12-15T12:09:15.193Z,1.5
2022-12-15T12:10:20.535Z,1.5
2022-12-15T12:11:28.427Z,1.5
2022-12-15T12:12:34.555Z,1.6
2022-12-15T12:13:41.999Z,1.6
2022-12-15T12:15:55.814Z,1.6
2022-12-15T12:17:02.931Z,1.6
2022-12-15T12:18:10.875Z,1.6
2022-12-15T12:19:17.117Z,1.6
2022-12-15T12:20:23.535Z,1.6
2022-12-15T12:21:30.815Z,1.6
2022-12-15T12:22:37.987Z,1.7
2022-12-15T12:23:44.756Z,1.8
2022-12-15T12:24:51.342Z,1.8
2022-12-15T12:26:03.013Z,1.8
2022-12-15T12:27:06.756Z,1.8
2022-12-15T12:28:12.751Z,1.8
2022-12-15T12:29:19.380Z,1.8
2022-12-15T12:30:26.349Z,1.8
2022-12-15T12:31:33.989Z,1.8
2022-12-15T12:32:42.097Z,1.8
2022-12-15T12:33:48.574Z,1.8
2022-12-15T12:34:54.220Z,1.8
2022-12-15T12:36:02.047Z,1.8
2022-12-15T12:37:11.297Z,1.9
2022-12-15T12:38:15.569Z,1.9
2022-12-15T12:39:22.669Z,1.9
2022-12-15T12:40:29.849Z,1.9
2022-12-15T12:41:36.968Z,1.9
2022-12-15T12:42:43.885Z,1.9
2022-12-15T12:44:58.293Z,1.9
2022-12-15T12:46:05.316Z,2
2022-12-15T12:47:13.268Z,2
2022-12-15T12:48:18.461Z,2
2022-12-15T12:49:26.927Z,2
2022-12-15T12:50:33.307Z,2
2022-12-15T12:51:40.905Z,2
2022-12-15T12:52:47.396Z,2
2022-12-15T12:53:53.488Z,2
2022-12-15T12:55:02.273Z,2
2022-12-15T12:56:08.345Z,2
2022-12-15T12:57:16.183Z,2
2022-12-15T12:58:21.395Z,2
2022-12-15T12:59:28.456Z,2
2022-12-15T13:00:35.796Z,2
2022-12-15T13:01:47.676Z,2
2022-12-15T13:02:50.531Z,2
2022-12-15T13:03:57.005Z,2
2022-12-15T13:05:04.089Z,2
2022-12-15T13:06:11.167Z,2
2022-12-15T13:07:18.603Z,2.1
2022-12-15T13:08:25.057Z,2
2022-12-15T13:09:31.397Z,2
2022-12-15T13:10:39.092Z,2.1
2022-12-15T13:11:46.198Z,2.1
2022-12-15T13:12:54.124Z,2.1
2022-12-15T13:13:59.917Z,2.1
2022-12-15T13:15:07.125Z,2.1
2022-12-15T13:16:14.236Z,2.1
2022-12-15T13:17:27.884Z,2.1
2022-12-15T13:18:29.859Z,2.1
2022-12-15T13:19:35.284Z,2.1
2022-12-15T13:20:41.963Z,2.1
2022-12-15T13:21:50.166Z,2.2
2022-12-15T13:22:56.486Z,2.2
2022-12-15T13:24:03.319Z,2.2
2022-12-15T13:25:10.961Z,2.2
2022-12-15T13:26:17.120Z,2.2
2022-12-15T13:27:24.349Z,2.2
2022-12-15T13:28:30.630Z,2.1
2022-12-15T13:29:38.191Z,2.2
2022-12-15T13:30:44.577Z,2.2
2022-12-15T13:31:52.176Z,2.2
2022-12-15T13:32:59.254Z,2.2
2022-12-15T13:34:05.608Z,2.2
2022-12-15T13:35:12.743Z,2.2
2022-12-15T13:36:19.643Z,2.2
2022-12-15T13:37:27.294Z,2.1
2022-12-15T13:38:34.036Z,2.1
2022-12-15T13:39:41.197Z,2.1
2022-12-15T13:40:47.926Z,2.1
2022-12-15T13:42:31.712Z,2
2022-12-15T13:43:01.812Z,2
2022-12-15T13:44:09.209Z,2
2022-12-15T13:45:16.244Z,2
2022-12-15T13:46:23.570Z,2
2022-12-15T13:47:30.233Z,2
2022-12-15T13:48:36.601Z,2
2022-12-15T13:49:49.380Z,2
2022-12-15T13:50:51.346Z,2
2022-12-15T13:51:57.789Z,2
2022-12-15T13:53:19.968Z,1.9
2022-12-15T13:54:11.735Z,1.9
2022-12-15T13:55:24.103Z,1.9
2022-12-15T13:56:25.867Z,1.9
2022-12-15T13:57:33.171Z,1.9
2022-12-15T13:58:39.532Z,1.9
2022-12-15T13:59:46.511Z,1.9
2022-12-15T14:00:55.181Z,1.9
2022-12-15T14:02:01.441Z,1.8
2022-12-15T14:03:08.083Z,1.8
2022-12-15T14:04:14.371Z,1.8
2022-12-15T14:05:21.475Z,1.8
2022-12-15T14:06:29.247Z,1.8
2022-12-15T14:07:36.149Z,1.8
2022-12-15T14:08:43.013Z,1.8
2022-12-15T14:09:49.351Z,1.8
2022-12-15T14:10:57.033Z,1.8
2022-12-15T14:12:04.042Z,1.8
2022-12-15T14:13:15.867Z,1.8
2022-12-15T14:14:18.205Z,1.8
2022-12-15T14:15:24.715Z,1.8
2022-12-15T14:16:31.861Z,1.8
2022-12-15T14:17:38.570Z,1.7
2022-12-15T14:18:45.702Z,1.7
2022-12-15T14:19:53.405Z,1.7
2022-12-15T14:20:59.877Z,1.7
2022-12-15T14:22:07.070Z,1.7
2022-12-15T14:23:14.046Z,1.7
2022-12-15T14:24:38.037Z,1.6
2022-12-15T14:25:28.136Z,1.6
2022-12-15T14:26:35.008Z,1.6
2022-12-15T14:27:41.601Z,1.6
2022-12-15T14:28:48.708Z,1.6
2022-12-15T14:30:00.741Z,1.6
2022-12-15T14:31:03.135Z,1.6
2022-12-15T14:32:10.092Z,1.6
2022-12-15T14:33:16.557Z,1.6
2022-12-15T14:34:24.133Z,1.6
2022-12-15T14:35:30.868Z,1.5
2022-12-15T14:36:38.007Z,1.5
2022-12-15T14:37:44.427Z,1.5
2022-12-15T14:38:51.518Z,1.5
2022-12-15T14:39:58.605Z,1.5
2022-12-15T14:42:12.847Z,1.5
2022-12-15T14:43:19.408Z,1.6
2022-12-15T14:44:31.248Z,1.6
2022-12-15T14:45:33.954Z,1.6
2022-12-15T14:46:41.424Z,1.6
2022-12-15T14:48:05.805Z,1.6
2022-12-15T14:50:03.231Z,1.6
2022-12-15T14:51:08.616Z,1.6
2022-12-15T14:52:16.117Z,1.6
2022-12-15T14:53:23.022Z,1.7
2022-12-15T14:54:31.035Z,1.7
2022-12-15T14:55:36.523Z,1.7
2022-12-15T14:56:43.638Z,1.6
2022-12-15T14:57:51.717Z,1.6
2022-12-15T14:58:57.330Z,1.6
2022-12-15T15:00:04.512Z,1.6
2022-12-15T15:01:12.153Z,1.6
2022-12-15T15:02:19.839Z,1.6
2022-12-15T15:03:27.373Z,1.6
2022-12-15T15:04:34.052Z,1.6
2022-12-15T15:05:39.867Z,1.6
2022-12-15T15:06:52.027Z,1.6
2022-12-15T15:07:54.386Z,1.6
2022-12-15T15:09:00.738Z,1.6
2022-12-15T15:10:08.034Z,1.5
2022-12-15T15:11:15.143Z,1.5
2022-12-15T15:12:21.856Z,1.4
2022-12-15T15:13:28.642Z,1.4
2022-12-15T15:14:37.352Z,1.4
2022-12-15T15:15:42.374Z,1.4
2022-12-15T15:16:49.463Z,1.4
2022-12-15T15:17:56.885Z,1.4
2022-12-15T15:19:04.377Z,1.4
2022-12-15T15:20:11.419Z,1.4
2022-12-15T15:21:17.338Z,1.4
2022-12-15T15:22:25.792Z,1.4
2022-12-15T15:23:33.176Z,1.4
2022-12-15T15:24:38.651Z,1.4
2022-12-15T15:25:45.826Z,1.4
2022-12-15T15:26:52.420Z,1.4
2022-12-15T15:28:01.505Z,1.4
2022-12-15T15:29:08.242Z,1.3
2022-12-15T15:30:15.280Z,1.3
2022-12-15T15:31:21.611Z,1.3
2022-12-15T15:32:27.989Z,1.3
2022-12-15T15:33:34.492Z,1.3
2022-12-15T15:34:43.140Z,1.3
2022-12-15T15:35:49.483Z,1.3
2022-12-15T15:36:56.959Z,1.3
2022-12-15T15:38:02.510Z,1.3
2022-12-15T15:39:09.598Z,1.3
2022-12-15T15:40:18.198Z,1.2
2022-12-15T15:41:23.711Z,1.2
2022-12-15T15:42:32.841Z,1.2
2022-12-15T15:43:37.379Z,1.2
2022-12-15T15:45:51.642Z,1.2
2022-12-15T15:46:58.691Z,1.3
2022-12-15T15:48:06.357Z,1.3
2022-12-15T15:49:12.903Z,1.3
2022-12-15T15:50:19.499Z,1.2
2022-12-15T15:51:28.177Z,1.2
2022-12-15T15:52:34.289Z,1.3
2022-12-15T15:53:41.438Z,1.3
2022-12-15T15:54:47.986Z,1.3
2022-12-15T15:55:55.140Z,1.3
2022-12-15T15:57:01.928Z,1.3
2022-12-15T15:58:09.498Z,1.3
2022-12-15T15:59:16.509Z,1.3
2022-12-15T16:00:22.979Z,1.3
2022-12-15T16:01:31.346Z,1.3
2022-12-15T16:02:37.029Z,1.2
2022-12-15T16:03:44.444Z,1.2
2022-12-15T16:04:52.033Z,1.2
2022-12-15T16:05:59.002Z,1.2
2022-12-15T16:07:06.124Z,1.2
2022-12-15T16:08:11.916Z,1.2
2022-12-15T16:09:18.721Z,1.2